Terminal Aerodrome Forecast
Issued by NWS Twin Cities, MN

Home | Current Version | Previous Version | Graphics & Text | Print | Product List | Glossary On
Versions: 1 2 3 4 5 6 7 8 9 10 11 12 13 14
000
FTUS43 KMPX 201741
TAFSTC
TAF
KSTC 201741Z 2018/2118 06010G19KT 4SM RA BR OVC035
     FM202100 06010G19KT 3SM -RA BR OVC008
     FM210300 05007KT 2SM -DZ OVC005
     FM210900 36007KT 5SM -RA BR OVC005
     FM211600 30010G16KT P6SM VCSH OVC007=

USA.gov is the U.S. government's official web portal to all federal, state and local government web resources and services.